Terminal Aerodrome Forecast
Issued by NWS Albany, NY

Home | Current Version | Previous Version | Text Only | Print | Product List | Glossary On
Versions: 1 2 3 4 5 6 7 8 9 10 11 12 13
921
FTUS41 KALY 230521
TAFGFL
TAF
KGFL 230521Z 2306/2406 VRB03KT 2SM BR BKN250
     FM231000 00000KT P6SM SCT250
     FM231200 00000KT P6SM BKN250
     FM231900 VRB03KT P6SM SCT200
     FM232300 VRB03KT P6SM BKN060
     FM240400 00000KT P6SM SCT200
      AMD NOT SKED=

USA.gov is the U.S. government's official web portal to all federal, state and local government web resources and services.